createdAt,value
2022-10-09T00:01:28.113Z,10.61
2022-10-09T00:03:56.963Z,10.62
2022-10-09T00:06:29.652Z,10.65
2022-10-09T00:08:59.237Z,10.65
2022-10-09T00:11:28.921Z,10.62
2022-10-09T00:13:57.540Z,10.55
2022-10-09T00:16:26.371Z,10.49
2022-10-09T00:18:54.377Z,10.47
2022-10-09T00:21:22.187Z,10.40
2022-10-09T00:23:52.198Z,10.34
2022-10-09T00:26:20.788Z,10.26
2022-10-09T00:28:49.441Z,10.20
2022-10-09T00:31:18.177Z,10.20
2022-10-09T00:33:46.445Z,10.13
2022-10-09T00:36:19.397Z,10.12
2022-10-09T00:38:47.743Z,10.16
2022-10-09T00:41:22.890Z,10.17
2022-10-09T00:43:59.916Z,10.10
2022-10-09T00:46:35.116Z,10.02
2022-10-09T00:49:28.221Z,10.01
2022-10-09T00:51:59.780Z,10.00
2022-10-09T00:54:29.666Z,9.96
2022-10-09T00:56:58.616Z,9.86
2022-10-09T00:59:27.672Z,9.83
2022-10-09T01:01:55.733Z,9.79
2022-10-09T01:04:26.511Z,9.79
2022-10-09T01:07:06.407Z,9.73
2022-10-09T01:09:43.286Z,9.72
2022-10-09T01:12:30.888Z,9.69
2022-10-09T01:15:21.475Z,9.68
2022-10-09T01:17:59.240Z,9.75
2022-10-09T01:20:50.561Z,9.73
2022-10-09T01:23:50.920Z,9.70
2022-10-09T01:26:46.539Z,9.66
2022-10-09T01:29:16.075Z,9.63
2022-10-09T01:31:45.491Z,9.60
2022-10-09T01:34:15.035Z,9.58
2022-10-09T01:36:43.634Z,9.56
2022-10-09T01:39:16.423Z,9.56
2022-10-09T01:41:46.545Z,9.56
2022-10-09T01:44:25.852Z,9.54
2022-10-09T01:46:53.847Z,9.52
2022-10-09T01:49:32.379Z,9.48
2022-10-09T01:52:08.565Z,9.45
2022-10-09T01:54:55.610Z,9.45
2022-10-09T01:57:35.685Z,9.46
2022-10-09T02:00:07.844Z,9.44
2022-10-09T02:02:42.218Z,9.43
2022-10-09T02:05:15.676Z,9.49
2022-10-09T02:07:43.837Z,9.48
2022-10-09T02:10:15.540Z,9.44
2022-10-09T02:12:47.919Z,9.35
2022-10-09T02:15:17.119Z,9.28
2022-10-09T02:17:48.995Z,9.21
2022-10-09T02:20:25.641Z,9.19
2022-10-09T02:22:54.913Z,9.14
2022-10-09T02:25:22.839Z,9.07
2022-10-09T02:27:50.824Z,9.10
2022-10-09T02:30:20.761Z,9.07
2022-10-09T02:37:09.294Z,8.95
2022-10-09T02:39:37.316Z,8.98
2022-10-09T02:42:05.256Z,9.03
2022-10-09T02:44:33.895Z,9.08
2022-10-09T02:47:02.509Z,9.14
2022-10-09T02:49:30.919Z,9.14
2022-10-09T02:51:58.726Z,9.08
2022-10-09T02:54:26.768Z,9.03
2022-10-09T02:56:54.547Z,8.99
2022-10-09T02:59:22.303Z,8.97
2022-10-09T03:01:50.440Z,8.96
2022-10-09T03:04:19.428Z,9.00
2022-10-09T03:06:51.860Z,9.01
2022-10-09T03:09:19.624Z,9.03
2022-10-09T03:11:47.779Z,9.03
2022-10-09T03:14:17.355Z,9.06
2022-10-09T03:16:45.651Z,9.06
2022-10-09T03:19:13.552Z,9.09
2022-10-09T03:21:41.539Z,9.09
2022-10-09T03:24:09.835Z,9.11
2022-10-09T03:26:37.817Z,9.07
2022-10-09T03:29:05.612Z,9.02
2022-10-09T03:31:50.477Z,8.98
2022-10-09T03:34:22.509Z,8.97
2022-10-09T03:36:50.371Z,9.02
2022-10-09T03:39:18.323Z,9.04
2022-10-09T03:41:46.191Z,9.03
2022-10-09T03:44:14.399Z,9.04
2022-10-09T03:46:43.709Z,9.04
2022-10-09T03:49:11.517Z,9.06
2022-10-09T03:51:39.335Z,9.07
2022-10-09T03:54:07.142Z,9.09
2022-10-09T03:56:35.158Z,9.09
2022-10-09T03:59:05.558Z,9.09
2022-10-09T04:01:33.475Z,9.07
2022-10-09T04:04:01.308Z,9.04
2022-10-09T04:06:29.170Z,8.98
2022-10-09T04:08:57.381Z,8.89
2022-10-09T04:11:25.230Z,8.80
2022-10-09T04:13:53.123Z,8.71
2022-10-09T04:16:20.976Z,8.73
2022-10-09T04:18:48.796Z,8.79
2022-10-09T04:21:16.786Z,8.84
2022-10-09T04:23:44.877Z,8.87
2022-10-09T04:26:13.004Z,8.88
2022-10-09T04:28:40.905Z,8.86
2022-10-09T04:31:09.182Z,8.83
2022-10-09T04:33:38.054Z,8.82
2022-10-09T04:36:06.126Z,8.76
2022-10-09T04:38:34.337Z,8.73
2022-10-09T04:41:04.875Z,8.71
2022-10-09T04:43:34.308Z,8.70
2022-10-09T04:46:07.892Z,8.69
2022-10-09T04:48:42.761Z,8.67
2022-10-09T04:51:11.627Z,8.67
2022-10-09T04:53:39.934Z,8.65
2022-10-09T04:56:10.765Z,8.62
2022-10-09T04:58:40.691Z,8.60
2022-10-09T05:01:25.079Z,8.60
2022-10-09T05:03:54.384Z,8.59
2022-10-09T05:06:23.328Z,8.60
2022-10-09T05:08:52.009Z,8.60
2022-10-09T05:11:25.489Z,8.60
2022-10-09T05:13:57.063Z,8.65
2022-10-09T05:16:27.621Z,8.66
2022-10-09T05:18:58.925Z,8.67
2022-10-09T05:21:27.977Z,8.67
2022-10-09T05:23:58.193Z,8.65
2022-10-09T05:26:27.517Z,8.60
2022-10-09T05:28:56.570Z,8.55
2022-10-09T05:31:26.952Z,8.53
2022-10-09T05:33:56.182Z,8.53
2022-10-09T05:36:24.163Z,8.55
2022-10-09T05:38:52.734Z,8.58
2022-10-09T05:41:21.437Z,8.61
2022-10-09T05:43:50.396Z,8.68
2022-10-09T05:46:23.979Z,8.72
2022-10-09T05:48:57.649Z,8.76
2022-10-09T05:51:29.579Z,8.78
2022-10-09T05:53:57.867Z,8.82
2022-10-09T05:56:27.889Z,8.86
2022-10-09T05:59:00.987Z,8.87
2022-10-09T06:01:34.497Z,8.88
2022-10-09T06:04:03.425Z,8.91
2022-10-09T06:06:33.070Z,8.96
2022-10-09T06:09:04.361Z,9.00
2022-10-09T06:11:34.889Z,9.07
2022-10-09T06:14:04.726Z,9.16
2022-10-09T06:16:36.065Z,9.26
2022-10-09T06:19:06.784Z,9.38
2022-10-09T06:21:35.526Z,9.47
2022-10-09T06:24:04.556Z,9.52
2022-10-09T06:26:36.623Z,9.64
2022-10-09T06:29:04.877Z,9.64
2022-10-09T06:31:34.046Z,9.56
2022-10-09T06:34:03.319Z,9.57
2022-10-09T06:36:33.887Z,9.58
2022-10-09T06:39:05.944Z,9.66
2022-10-09T06:41:34.843Z,9.80
2022-10-09T06:44:16.709Z,9.82
2022-10-09T06:46:46.046Z,9.88
2022-10-09T06:49:13.892Z,10.02
2022-10-09T06:51:41.755Z,10.20
2022-10-09T06:54:12.893Z,10.26
2022-10-09T06:56:40.791Z,10.14
2022-10-09T06:59:09.723Z,10.22
2022-10-09T07:01:37.642Z,10.33
2022-10-09T07:04:10.735Z,10.42
2022-10-09T07:06:41.095Z,10.58
2022-10-09T07:09:12.026Z,10.77
2022-10-09T07:11:43.303Z,10.96
2022-10-09T07:14:12.527Z,11.13
2022-10-09T07:16:42.517Z,11.23
2022-10-09T07:19:11.966Z,11.34
2022-10-09T07:21:41.782Z,11.43
2022-10-09T07:24:10.346Z,11.48
2022-10-09T07:26:41.185Z,11.61
2022-10-09T07:29:10.669Z,11.72
2022-10-09T07:31:38.596Z,11.67
2022-10-09T07:34:06.779Z,11.63
2022-10-09T07:36:34.665Z,11.68
2022-10-09T07:39:02.886Z,11.77
2022-10-09T07:41:31.132Z,11.89
2022-10-09T07:43:59.047Z,11.83
2022-10-09T07:46:32.968Z,11.83
2022-10-09T07:49:02.946Z,11.93
2022-10-09T07:51:31.452Z,12.05
2022-10-09T07:54:01.835Z,12.24
2022-10-09T07:56:32.365Z,12.48
2022-10-09T07:59:02.552Z,12.65
2022-10-09T08:01:31.847Z,12.66
2022-10-09T08:04:02.249Z,12.70
2022-10-09T08:06:34.986Z,12.66
2022-10-09T08:09:06.070Z,12.71
2022-10-09T08:11:34.770Z,12.71
2022-10-09T08:14:02.620Z,12.73
2022-10-09T08:16:32.103Z,12.77
2022-10-09T08:19:02.302Z,12.78
2022-10-09T08:21:30.524Z,12.82
2022-10-09T08:23:59.836Z,12.91
2022-10-09T08:26:30.145Z,13.01
2022-10-09T08:29:00.810Z,13.20
2022-10-09T08:31:29.260Z,13.42
2022-10-09T08:33:58.809Z,13.61
2022-10-09T08:36:27.594Z,13.75
2022-10-09T08:38:56.200Z,13.76
2022-10-09T08:41:33.908Z,14.04
2022-10-09T08:44:18.825Z,14.36
2022-10-09T08:46:52.015Z,14.61
2022-10-09T08:49:35.028Z,14.65
2022-10-09T08:52:35.413Z,14.86
2022-10-09T08:55:11.940Z,15.16
2022-10-09T08:57:40.016Z,15.27
2022-10-09T09:00:30.939Z,15.54
2022-10-09T09:03:20.964Z,15.80
2022-10-09T09:05:58.348Z,15.81
2022-10-09T09:08:44.662Z,15.73
2022-10-09T09:11:34.346Z,15.79
2022-10-09T09:14:19.484Z,16.02
2022-10-09T09:16:59.152Z,16.34
2022-10-09T09:19:35.778Z,16.68
2022-10-09T09:22:04.192Z,16.99
2022-10-09T09:24:42.249Z,17.03
2022-10-09T09:27:16.331Z,17.15
2022-10-09T09:29:48.856Z,17.01
2022-10-09T09:32:20.971Z,17.06
2022-10-09T09:34:50.946Z,17.13
2022-10-09T09:37:18.919Z,17.13
2022-10-09T09:42:34.730Z,16.56
2022-10-09T09:45:06.636Z,16.77
2022-10-09T09:47:48.257Z,17.05
2022-10-09T09:50:45.673Z,17.19
2022-10-09T09:53:27.307Z,17.47
2022-10-09T09:55:56.494Z,17.87
2022-10-09T09:58:33.046Z,18.07
2022-10-09T10:01:03.327Z,18.34
2022-10-09T10:03:35.286Z,18.64
2022-10-09T10:06:03.610Z,18.81
2022-10-09T10:08:33.964Z,18.94
2022-10-09T10:11:07.755Z,19.02
2022-10-09T10:13:49.096Z,19.35
2022-10-09T10:16:28.070Z,19.58
2022-10-09T10:19:00.326Z,19.26
2022-10-09T10:21:43.184Z,19.11
2022-10-09T10:24:16.588Z,19.29
2022-10-09T10:27:01.270Z,19.55
2022-10-09T10:29:41.653Z,19.71
2022-10-09T10:32:34.584Z,19.87
2022-10-09T10:35:08.444Z,20.29
2022-10-09T10:38:13.299Z,20.55
2022-10-09T10:40:49.246Z,20.91
2022-10-09T10:43:36.123Z,21.21
2022-10-09T10:46:19.259Z,21.35
2022-10-09T10:48:48.051Z,21.55
2022-10-09T10:51:27.818Z,21.81
2022-10-09T10:54:20.302Z,21.81
2022-10-09T10:57:14.969Z,21.41
2022-10-09T11:00:05.691Z,20.86
2022-10-09T11:02:58.982Z,20.95
2022-10-09T11:05:45.770Z,21.12
2022-10-09T11:08:41.717Z,20.96
2022-10-09T11:11:19.153Z,20.35
2022-10-09T11:14:00.889Z,19.86
2022-10-09T11:16:40.073Z,19.57
2022-10-09T11:19:27.112Z,19.18
2022-10-09T11:22:07.670Z,18.94
2022-10-09T11:24:58.959Z,19.44
2022-10-09T11:28:32.734Z,20.00
2022-10-09T11:31:13.831Z,20.22
2022-10-09T11:33:43.772Z,20.41
2022-10-09T11:36:24.826Z,20.73
2022-10-09T11:38:59.569Z,21.03
2022-10-09T11:41:27.889Z,21.28
2022-10-09T11:44:16.643Z,21.33
2022-10-09T11:46:59.225Z,21.27
2022-10-09T11:50:07.270Z,21.57
2022-10-09T11:53:02.273Z,21.94
2022-10-09T11:55:32.315Z,22.22
2022-10-09T11:58:26.038Z,22.41
2022-10-09T12:00:56.346Z,22.73
2022-10-09T12:03:34.156Z,22.98
2022-10-09T12:06:13.705Z,23.00
2022-10-09T12:08:54.895Z,22.98
2022-10-09T12:11:25.578Z,23.21
2022-10-09T12:14:25.622Z,23.29
2022-10-09T12:21:47.761Z,22.45
2022-10-09T12:24:18.903Z,21.99
2022-10-09T12:26:48.428Z,22.03
2022-10-09T12:30:00.962Z,21.82
2022-10-09T12:32:40.795Z,22.32
2022-10-09T12:35:33.298Z,22.26
2022-10-09T12:38:01.476Z,22.25
2022-10-09T12:40:32.538Z,21.82
2022-10-09T12:43:10.198Z,21.33
2022-10-09T12:45:49.232Z,20.89
2022-10-09T12:48:23.401Z,21.09
2022-10-09T12:50:52.791Z,21.52
2022-10-09T12:53:23.496Z,21.94
2022-10-09T12:56:00.646Z,22.38
2022-10-09T12:58:33.658Z,22.72
2022-10-09T13:01:08.027Z,23.07
2022-10-09T13:03:40.916Z,23.38
2022-10-09T13:06:24.049Z,23.58
2022-10-09T13:09:03.620Z,23.72
2022-10-09T13:11:40.356Z,23.99
2022-10-09T13:14:27.046Z,24.00
2022-10-09T13:16:57.534Z,23.63
2022-10-09T13:19:31.966Z,23.06
2022-10-09T13:22:29.053Z,22.59
2022-10-09T13:24:59.027Z,22.84
2022-10-09T13:27:32.880Z,23.17
2022-10-09T13:30:01.481Z,23.09
2022-10-09T13:32:29.345Z,23.38
2022-10-09T13:34:58.140Z,23.10
2022-10-09T13:37:26.942Z,22.44
2022-10-09T13:39:56.956Z,21.87
2022-10-09T13:42:31.260Z,21.55
2022-10-09T13:44:58.984Z,22.01
2022-10-09T13:47:26.863Z,22.97
2022-10-09T13:49:55.556Z,23.76
2022-10-09T13:52:23.319Z,24.47
2022-10-09T13:54:51.111Z,25.15
2022-10-09T13:57:18.968Z,25.78
2022-10-09T13:59:46.787Z,26.36
2022-10-09T14:02:14.647Z,26.90
2022-10-09T14:04:42.709Z,27.47
2022-10-09T14:07:10.545Z,27.99
2022-10-09T14:09:38.461Z,28.46
2022-10-09T14:12:06.231Z,28.89
2022-10-09T14:14:34.056Z,29.32
2022-10-09T14:17:01.797Z,29.70
2022-10-09T14:19:29.663Z,30.14
2022-10-09T14:21:58.045Z,30.52
2022-10-09T14:24:27.147Z,30.81
2022-10-09T14:26:54.956Z,31.15
2022-10-09T14:29:22.753Z,31.50
2022-10-09T14:31:51.451Z,31.83
2022-10-09T14:34:19.463Z,32.10
2022-10-09T14:36:47.272Z,32.38
2022-10-09T14:39:15.671Z,32.59
2022-10-09T14:41:43.419Z,32.77
2022-10-09T14:44:11.458Z,32.95
2022-10-09T14:46:39.407Z,33.15
2022-10-09T14:49:08.355Z,33.31
2022-10-09T14:51:38.202Z,33.32
2022-10-09T14:54:06.960Z,33.38
2022-10-09T14:56:35.615Z,33.43
2022-10-09T14:59:05.895Z,33.55
2022-10-09T15:01:34.172Z,33.59
2022-10-09T15:04:03.468Z,33.73
2022-10-09T15:06:32.296Z,33.89
2022-10-09T15:09:04.609Z,34.07
2022-10-09T15:11:34.980Z,34.41
2022-10-09T15:14:03.883Z,34.61
2022-10-09T15:16:31.654Z,34.80
2022-10-09T15:18:59.492Z,35.00
2022-10-09T15:21:32.427Z,35.09
2022-10-09T15:24:01.557Z,35.08
2022-10-09T15:26:36.263Z,34.97
2022-10-09T15:29:06.423Z,34.55
2022-10-09T15:31:38.568Z,33.13
2022-10-09T15:34:07.714Z,31.36
2022-10-09T15:36:38.089Z,29.72
2022-10-09T15:39:08.791Z,28.19
2022-10-09T15:41:38.278Z,27.04
2022-10-09T15:44:17.574Z,25.89
2022-10-09T15:46:46.043Z,24.78
2022-10-09T15:49:14.022Z,23.86
2022-10-09T15:51:41.807Z,23.01
2022-10-09T15:54:11.315Z,22.23
2022-10-09T15:56:40.379Z,21.48
2022-10-09T15:59:11.676Z,20.82
2022-10-09T16:01:39.912Z,20.22
2022-10-09T16:04:08.625Z,19.66
2022-10-09T16:06:36.824Z,19.12
2022-10-09T16:09:04.711Z,18.68
2022-10-09T16:11:32.604Z,18.30
2022-10-09T16:14:00.959Z,17.86
2022-10-09T16:16:31.964Z,17.42
2022-10-09T16:19:02.599Z,17.00
2022-10-09T16:21:31.489Z,16.71
2022-10-09T16:23:59.764Z,16.47
2022-10-09T16:26:29.252Z,16.25
2022-10-09T16:28:59.023Z,16.03
2022-10-09T16:31:30.225Z,15.78
2022-10-09T16:33:58.501Z,15.52
2022-10-09T16:36:26.776Z,15.23
2022-10-09T16:38:56.080Z,14.97
2022-10-09T16:41:24.834Z,14.71
2022-10-09T16:43:54.797Z,14.52
2022-10-09T16:46:25.469Z,14.33
2022-10-09T16:48:54.848Z,14.15
2022-10-09T16:51:25.480Z,14.00
2022-10-09T16:53:56.032Z,13.87
2022-10-09T16:56:29.942Z,13.70
2022-10-09T16:58:59.512Z,13.55
2022-10-09T17:01:28.214Z,13.39
2022-10-09T17:04:00.043Z,13.24
2022-10-09T17:06:28.052Z,13.14
2022-10-09T17:08:58.490Z,13.07
2022-10-09T17:11:29.773Z,13.03
2022-10-09T17:13:58.516Z,12.98
2022-10-09T17:16:30.136Z,12.85
2022-10-09T17:18:59.917Z,12.72
2022-10-09T17:21:32.871Z,12.58
2022-10-09T17:24:04.722Z,12.43
2022-10-09T17:26:32.590Z,12.34
2022-10-09T17:29:01.140Z,12.26
2022-10-09T17:31:30.234Z,12.21
2022-10-09T17:34:02.673Z,12.10
2022-10-09T17:36:33.200Z,12.00
2022-10-09T17:39:01.634Z,11.88
2022-10-09T17:41:31.817Z,11.73
2022-10-09T17:44:00.146Z,11.65
2022-10-09T17:46:28.963Z,11.59
2022-10-09T17:48:58.407Z,11.51
2022-10-09T17:51:28.293Z,11.46
2022-10-09T17:54:01.728Z,11.40
2022-10-09T17:56:31.469Z,11.33
2022-10-09T17:59:01.443Z,11.25
2022-10-09T18:01:30.826Z,11.17
2022-10-09T18:03:58.857Z,11.13
2022-10-09T18:06:27.587Z,11.10
2022-10-09T18:08:57.203Z,11.05
2022-10-09T18:11:26.208Z,11.02
2022-10-09T18:13:54.545Z,11.00
2022-10-09T18:16:35.330Z,10.97
2022-10-09T18:19:12.601Z,10.93
2022-10-09T18:21:43.669Z,10.82
2022-10-09T18:24:12.639Z,10.72
2022-10-09T18:26:41.126Z,10.66
2022-10-09T18:29:08.912Z,10.67
2022-10-09T18:31:37.761Z,10.70
2022-10-09T18:34:05.823Z,10.68
2022-10-09T18:36:34.812Z,10.66
2022-10-09T18:39:06.418Z,10.65
2022-10-09T18:41:35.565Z,10.66
2022-10-09T18:44:04.499Z,10.66
2022-10-09T18:46:36.598Z,10.69
2022-10-09T18:49:09.468Z,10.67
2022-10-09T18:51:39.951Z,10.61
2022-10-09T18:54:08.140Z,10.55
2022-10-09T18:56:36.520Z,10.48
2022-10-09T18:59:07.519Z,10.41
2022-10-09T19:01:35.402Z,10.34
2022-10-09T19:04:03.451Z,10.23
2022-10-09T19:06:31.781Z,10.12
2022-10-09T19:09:00.934Z,10.01
2022-10-09T19:11:30.786Z,9.94
2022-10-09T19:14:01.979Z,9.86
2022-10-09T19:16:31.586Z,9.84
2022-10-09T19:18:59.664Z,9.83
2022-10-09T19:21:27.590Z,9.79
2022-10-09T19:23:55.760Z,9.72
2022-10-09T19:26:23.807Z,9.68
2022-10-09T19:28:51.953Z,9.64
2022-10-09T19:31:19.827Z,9.59
2022-10-09T19:33:47.897Z,9.53
2022-10-09T19:36:15.831Z,9.50
2022-10-09T19:38:44.003Z,9.55
2022-10-09T19:41:15.136Z,9.59
2022-10-09T19:43:44.531Z,9.60
2022-10-09T19:46:17.098Z,9.62
2022-10-09T19:48:45.937Z,9.64
2022-10-09T19:51:19.449Z,9.68
2022-10-09T19:53:48.057Z,9.72
2022-10-09T19:56:18.728Z,9.73
2022-10-09T19:58:48.217Z,9.72
2022-10-09T20:01:18.418Z,9.70
2022-10-09T20:03:47.169Z,9.70
2022-10-09T20:06:15.873Z,9.68
2022-10-09T20:08:45.212Z,9.68
2022-10-09T20:11:13.982Z,9.69
2022-10-09T20:13:42.847Z,9.69
2022-10-09T20:16:13.715Z,9.69
2022-10-09T20:18:42.525Z,9.69
2022-10-09T20:21:11.748Z,9.66
2022-10-09T20:23:43.156Z,9.66
2022-10-09T20:26:16.689Z,9.65
2022-10-09T20:28:44.936Z,9.63
2022-10-09T20:31:18.228Z,9.65
2022-10-09T20:33:47.290Z,9.65
2022-10-09T20:36:34.915Z,9.65
2022-10-09T20:39:08.206Z,9.63
2022-10-09T20:41:36.305Z,9.56
2022-10-09T20:44:04.784Z,9.53
2022-10-09T20:46:34.902Z,9.47
2022-10-09T20:49:09.421Z,9.44
2022-10-09T20:51:38.531Z,9.44
2022-10-09T20:54:07.507Z,9.47
2022-10-09T20:56:35.281Z,9.49
2022-10-09T20:59:03.250Z,9.49
2022-10-09T21:01:31.112Z,9.46
2022-10-09T21:03:59.321Z,9.50
2022-10-09T21:06:27.422Z,9.56
2022-10-09T21:08:56.905Z,9.64
2022-10-09T21:11:25.093Z,9.71
2022-10-09T21:13:52.838Z,9.74
2022-10-09T21:16:24.106Z,9.79
2022-10-09T21:18:56.740Z,9.82
2022-10-09T21:21:25.107Z,9.84
2022-10-09T21:23:54.082Z,9.88
2022-10-09T21:26:23.376Z,9.92
2022-10-09T21:28:55.463Z,9.91
2022-10-09T21:31:28.611Z,9.89
2022-10-09T21:33:58.331Z,9.86
2022-10-09T21:37:08.967Z,9.85
2022-10-09T21:39:36.358Z,9.83
2022-10-09T21:42:04.646Z,9.81
2022-10-09T21:44:32.735Z,9.79
2022-10-09T21:47:00.498Z,9.80
2022-10-09T21:49:28.626Z,9.79
2022-10-09T21:51:56.770Z,9.75
2022-10-09T21:54:26.770Z,9.70
2022-10-09T21:56:54.643Z,9.65
2022-10-09T21:59:22.406Z,9.57
2022-10-09T22:01:50.167Z,9.52
2022-10-09T22:04:17.923Z,9.53
2022-10-09T22:06:45.817Z,9.57
2022-10-09T22:09:13.590Z,9.59
2022-10-09T22:11:41.415Z,9.57
2022-10-09T22:14:09.133Z,9.57
2022-10-09T22:16:36.880Z,9.55
2022-10-09T22:19:04.709Z,9.53
2022-10-09T22:21:32.746Z,9.54
2022-10-09T22:24:01.125Z,9.51
2022-10-09T22:26:29.103Z,9.47
2022-10-09T22:28:57.585Z,9.44
2022-10-09T22:31:27.065Z,9.41
2022-10-09T22:34:00.669Z,9.43
2022-10-09T22:36:31.739Z,9.42
2022-10-09T22:39:02.165Z,9.43
2022-10-09T22:41:30.488Z,9.45
2022-10-09T22:43:59.171Z,9.41
2022-10-09T22:46:46.901Z,9.40
2022-10-09T22:49:17.263Z,9.37
2022-10-09T22:51:45.710Z,9.35
2022-10-09T22:54:13.621Z,9.30
2022-10-09T22:56:43.718Z,9.21
2022-10-09T22:59:14.487Z,9.15
2022-10-09T23:02:00.569Z,9.11
2022-10-09T23:04:29.264Z,9.10
2022-10-09T23:06:58.487Z,9.06
2022-10-09T23:09:30.411Z,9.07
2022-10-09T23:11:59.033Z,9.09
2022-10-09T23:14:27.640Z,9.10
2022-10-09T23:16:55.756Z,9.11
2022-10-09T23:19:23.858Z,9.09
2022-10-09T23:21:51.707Z,9.08
2022-10-09T23:24:19.695Z,9.08
2022-10-09T23:26:50.857Z,9.07
2022-10-09T23:29:21.291Z,9.06
2022-10-09T23:31:52.839Z,9.06
2022-10-09T23:34:20.689Z,9.06
2022-10-09T23:36:48.650Z,9.04
2022-10-09T23:39:17.519Z,9.00
2022-10-09T23:41:46.079Z,9.02
2022-10-09T23:44:15.317Z,8.99
2022-10-09T23:46:45.542Z,8.94
2022-10-09T23:49:13.319Z,8.92
2022-10-09T23:51:42.332Z,8.90
2022-10-09T23:54:11.743Z,8.86
2022-10-09T23:56:40.536Z,8.77
2022-10-09T23:59:08.610Z,8.70
